sensor_id;sensor_type;location;lat;lon;timestamp;temperature;humidity
16511;DHT22;8368;48.772;8.754;2024-03-06T00:02:18;4.40;99.90
16511;DHT22;8368;48.772;8.754;2024-03-06T00:04:44;4.50;99.90
16511;DHT22;8368;48.772;8.754;2024-03-06T00:07:10;4.50;99.90
16511;DHT22;8368;48.772;8.754;2024-03-06T00:09:35;4.50;99.90
16511;DHT22;8368;48.772;8.754;2024-03-06T00:12:02;4.50;99.90
16511;DHT22;8368;48.772;8.754;2024-03-06T00:14:27;4.50;99.90
16511;DHT22;8368;48.772;8.754;2024-03-06T00:16:53;4.50;99.90
16511;DHT22;8368;48.772;8.754;2024-03-06T00:19:21;4.60;99.90
16511;DHT22;8368;48.772;8.754;2024-03-06T00:21:47;4.60;99.90
16511;DHT22;8368;48.772;8.754;2024-03-06T00:24:13;4.60;99.90
16511;DHT22;8368;48.772;8.754;2024-03-06T00:26:43;4.60;99.90
16511;DHT22;8368;48.772;8.754;2024-03-06T00:29:10;4.60;99.90
16511;DHT22;8368;48.772;8.754;2024-03-06T00:31:36;4.60;99.90
16511;DHT22;8368;48.772;8.754;2024-03-06T00:34:02;4.60;99.90
16511;DHT22;8368;48.772;8.754;2024-03-06T00:36:28;4.60;99.90
16511;DHT22;8368;48.772;8.754;2024-03-06T00:38:53;4.60;99.90
16511;DHT22;8368;48.772;8.754;2024-03-06T00:41:19;4.60;99.90
16511;DHT22;8368;48.772;8.754;2024-03-06T00:43:44;4.70;99.90
16511;DHT22;8368;48.772;8.754;2024-03-06T00:46:10;4.70;99.90
16511;DHT22;8368;48.772;8.754;2024-03-06T00:48:36;4.70;99.90
16511;DHT22;8368;48.772;8.754;2024-03-06T00:51:04;4.60;99.90
16511;DHT22;8368;48.772;8.754;2024-03-06T00:53:30;4.60;99.90
16511;DHT22;8368;48.772;8.754;2024-03-06T00:55:56;4.60;99.90
16511;DHT22;8368;48.772;8.754;2024-03-06T00:58:21;4.60;99.90
16511;DHT22;8368;48.772;8.754;2024-03-06T01:00:47;4.60;99.90
16511;DHT22;8368;48.772;8.754;2024-03-06T01:03:12;4.70;99.90
16511;DHT22;8368;48.772;8.754;2024-03-06T01:05:38;4.60;99.90
16511;DHT22;8368;48.772;8.754;2024-03-06T01:08:03;4.60;99.90
16511;DHT22;8368;48.772;8.754;2024-03-06T01:10:29;4.60;99.90
16511;DHT22;8368;48.772;8.754;2024-03-06T01:12:55;4.60;99.90
16511;DHT22;8368;48.772;8.754;2024-03-06T01:15:20;4.70;99.90
16511;DHT22;8368;48.772;8.754;2024-03-06T01:17:46;4.70;99.90
16511;DHT22;8368;48.772;8.754;2024-03-06T01:20:12;4.60;99.90
16511;DHT22;8368;48.772;8.754;2024-03-06T01:22:37;4.60;99.90
16511;DHT22;8368;48.772;8.754;2024-03-06T01:25:03;4.50;99.90
16511;DHT22;8368;48.772;8.754;2024-03-06T01:27:30;4.50;99.90
16511;DHT22;8368;48.772;8.754;2024-03-06T01:29:55;4.40;99.90
16511;DHT22;8368;48.772;8.754;2024-03-06T01:32:21;4.30;99.90
16511;DHT22;8368;48.772;8.754;2024-03-06T01:34:47;4.30;99.90
16511;DHT22;8368;48.772;8.754;2024-03-06T01:37:12;4.40;99.90
16511;DHT22;8368;48.772;8.754;2024-03-06T01:39:38;4.40;99.90
16511;DHT22;8368;48.772;8.754;2024-03-06T01:42:03;4.30;99.90
16511;DHT22;8368;48.772;8.754;2024-03-06T01:44:29;4.30;99.90
16511;DHT22;8368;48.772;8.754;2024-03-06T01:46:54;4.20;99.90
16511;DHT22;8368;48.772;8.754;2024-03-06T01:49:21;4.10;99.90
16511;DHT22;8368;48.772;8.754;2024-03-06T01:51:53;3.90;99.90
16511;DHT22;8368;48.772;8.754;2024-03-06T01:54:19;3.80;99.90
16511;DHT22;8368;48.772;8.754;2024-03-06T01:56:47;3.90;99.90
16511;DHT22;8368;48.772;8.754;2024-03-06T01:59:15;4.00;99.90
16511;DHT22;8368;48.772;8.754;2024-03-06T02:01:42;4.10;99.90
16511;DHT22;8368;48.772;8.754;2024-03-06T02:04:08;4.20;99.90
16511;DHT22;8368;48.772;8.754;2024-03-06T02:06:41;4.20;99.90
16511;DHT22;8368;48.772;8.754;2024-03-06T02:09:07;4.30;99.90
16511;DHT22;8368;48.772;8.754;2024-03-06T02:11:34;4.40;99.90
16511;DHT22;8368;48.772;8.754;2024-03-06T02:14:00;4.40;99.90
16511;DHT22;8368;48.772;8.754;2024-03-06T02:16:26;4.50;99.90
16511;DHT22;8368;48.772;8.754;2024-03-06T02:18:56;4.50;99.90
16511;DHT22;8368;48.772;8.754;2024-03-06T02:21:23;4.50;99.90
16511;DHT22;8368;48.772;8.754;2024-03-06T02:23:49;4.50;99.90
16511;DHT22;8368;48.772;8.754;2024-03-06T02:26:17;4.60;99.90
16511;DHT22;8368;48.772;8.754;2024-03-06T02:28:49;4.60;99.90
16511;DHT22;8368;48.772;8.754;2024-03-06T02:31:15;4.70;99.90
16511;DHT22;8368;48.772;8.754;2024-03-06T02:33:41;4.70;99.90
16511;DHT22;8368;48.772;8.754;2024-03-06T02:36:07;4.70;99.90
16511;DHT22;8368;48.772;8.754;2024-03-06T02:38:32;4.70;99.90
16511;DHT22;8368;48.772;8.754;2024-03-06T02:40:58;4.70;99.90
16511;DHT22;8368;48.772;8.754;2024-03-06T02:43:24;4.70;99.90
16511;DHT22;8368;48.772;8.754;2024-03-06T02:45:50;4.70;99.90
16511;DHT22;8368;48.772;8.754;2024-03-06T02:48:15;4.70;99.90
16511;DHT22;8368;48.772;8.754;2024-03-06T02:50:41;4.70;99.90
16511;DHT22;8368;48.772;8.754;2024-03-06T02:53:07;4.70;99.90
16511;DHT22;8368;48.772;8.754;2024-03-06T02:55:32;4.70;99.90
16511;DHT22;8368;48.772;8.754;2024-03-06T02:58:01;4.70;99.90
16511;DHT22;8368;48.772;8.754;2024-03-06T03:00:28;4.70;99.90
16511;DHT22;8368;48.772;8.754;2024-03-06T03:02:53;4.70;99.90
16511;DHT22;8368;48.772;8.754;2024-03-06T03:05:19;4.60;99.90
16511;DHT22;8368;48.772;8.754;2024-03-06T03:07:44;4.70;99.90
16511;DHT22;8368;48.772;8.754;2024-03-06T03:10:10;4.70;99.90
16511;DHT22;8368;48.772;8.754;2024-03-06T03:12:38;4.70;99.90
16511;DHT22;8368;48.772;8.754;2024-03-06T03:15:04;4.80;99.90
16511;DHT22;8368;48.772;8.754;2024-03-06T03:17:29;4.80;99.90
16511;DHT22;8368;48.772;8.754;2024-03-06T03:19:55;4.80;99.90
16511;DHT22;8368;48.772;8.754;2024-03-06T03:22:21;4.80;99.90
16511;DHT22;8368;48.772;8.754;2024-03-06T03:24:47;4.80;99.90
16511;DHT22;8368;48.772;8.754;2024-03-06T03:27:13;4.80;99.90
16511;DHT22;8368;48.772;8.754;2024-03-06T03:29:38;4.80;99.90
16511;DHT22;8368;48.772;8.754;2024-03-06T03:32:05;4.80;99.90
16511;DHT22;8368;48.772;8.754;2024-03-06T03:34:31;4.80;99.90
16511;DHT22;8368;48.772;8.754;2024-03-06T03:36:56;4.90;99.90
16511;DHT22;8368;48.772;8.754;2024-03-06T03:39:22;4.90;99.90
16511;DHT22;8368;48.772;8.754;2024-03-06T03:41:50;4.80;99.90
16511;DHT22;8368;48.772;8.754;2024-03-06T03:44:16;4.80;99.90
16511;DHT22;8368;48.772;8.754;2024-03-06T03:46:42;4.90;99.90
16511;DHT22;8368;48.772;8.754;2024-03-06T03:49:08;4.90;99.90
16511;DHT22;8368;48.772;8.754;2024-03-06T03:51:38;4.90;99.90
16511;DHT22;8368;48.772;8.754;2024-03-06T03:54:04;4.90;99.90
16511;DHT22;8368;48.772;8.754;2024-03-06T03:56:31;4.90;99.90
16511;DHT22;8368;48.772;8.754;2024-03-06T03:58:57;4.90;99.90
16511;DHT22;8368;48.772;8.754;2024-03-06T04:01:25;4.90;99.90
16511;DHT22;8368;48.772;8.754;2024-03-06T04:03:51;4.90;99.90
16511;DHT22;8368;48.772;8.754;2024-03-06T04:06:17;4.90;99.90
16511;DHT22;8368;48.772;8.754;2024-03-06T04:08:42;4.90;99.90
16511;DHT22;8368;48.772;8.754;2024-03-06T04:11:08;4.90;99.90
16511;DHT22;8368;48.772;8.754;2024-03-06T04:13:38;4.80;99.90
16511;DHT22;8368;48.772;8.754;2024-03-06T04:16:04;4.80;99.90
16511;DHT22;8368;48.772;8.754;2024-03-06T04:18:31;4.80;99.90
16511;DHT22;8368;48.772;8.754;2024-03-06T04:21:09;4.80;99.90
16511;DHT22;8368;48.772;8.754;2024-03-06T04:23:35;4.80;99.90
16511;DHT22;8368;48.772;8.754;2024-03-06T04:26:02;4.80;99.90
16511;DHT22;8368;48.772;8.754;2024-03-06T04:28:27;4.80;99.90
16511;DHT22;8368;48.772;8.754;2024-03-06T04:30:53;4.80;99.90
16511;DHT22;8368;48.772;8.754;2024-03-06T04:33:18;4.80;99.90
16511;DHT22;8368;48.772;8.754;2024-03-06T04:35:44;4.80;99.90
16511;DHT22;8368;48.772;8.754;2024-03-06T04:38:09;4.80;99.90
16511;DHT22;8368;48.772;8.754;2024-03-06T04:40:35;4.80;99.90
16511;DHT22;8368;48.772;8.754;2024-03-06T04:43:01;4.80;99.90
16511;DHT22;8368;48.772;8.754;2024-03-06T04:45:27;4.90;99.90
16511;DHT22;8368;48.772;8.754;2024-03-06T04:47:54;4.80;99.90
16511;DHT22;8368;48.772;8.754;2024-03-06T04:50:19;4.80;99.90
16511;DHT22;8368;48.772;8.754;2024-03-06T04:52:45;4.80;99.90
16511;DHT22;8368;48.772;8.754;2024-03-06T04:55:11;4.80;99.90
16511;DHT22;8368;48.772;8.754;2024-03-06T04:57:38;4.80;99.90
16511;DHT22;8368;48.772;8.754;2024-03-06T05:00:05;4.80;99.90
16511;DHT22;8368;48.772;8.754;2024-03-06T05:02:32;4.80;99.90
16511;DHT22;8368;48.772;8.754;2024-03-06T05:05:00;4.80;99.90
16511;DHT22;8368;48.772;8.754;2024-03-06T05:07:27;4.80;99.90
16511;DHT22;8368;48.772;8.754;2024-03-06T05:09:52;4.80;99.90
16511;DHT22;8368;48.772;8.754;2024-03-06T05:12:18;4.80;99.90
16511;DHT22;8368;48.772;8.754;2024-03-06T05:14:43;4.80;99.90
16511;DHT22;8368;48.772;8.754;2024-03-06T05:17:09;4.80;99.90
16511;DHT22;8368;48.772;8.754;2024-03-06T05:19:36;4.80;99.90
16511;DHT22;8368;48.772;8.754;2024-03-06T05:22:02;4.80;99.90
16511;DHT22;8368;48.772;8.754;2024-03-06T05:24:28;4.80;99.90
16511;DHT22;8368;48.772;8.754;2024-03-06T05:26:54;4.80;99.90
16511;DHT22;8368;48.772;8.754;2024-03-06T05:29:20;4.80;99.90
16511;DHT22;8368;48.772;8.754;2024-03-06T05:31:45;4.80;99.90
16511;DHT22;8368;48.772;8.754;2024-03-06T05:34:11;4.80;99.90
16511;DHT22;8368;48.772;8.754;2024-03-06T05:36:36;4.80;99.90
16511;DHT22;8368;48.772;8.754;2024-03-06T05:39:02;4.80;99.90
16511;DHT22;8368;48.772;8.754;2024-03-06T05:41:35;4.70;99.90
16511;DHT22;8368;48.772;8.754;2024-03-06T05:44:01;4.70;99.90
16511;DHT22;8368;48.772;8.754;2024-03-06T05:46:26;4.70;99.90
16511;DHT22;8368;48.772;8.754;2024-03-06T05:48:52;4.70;99.90
16511;DHT22;8368;48.772;8.754;2024-03-06T05:51:18;4.60;99.90
16511;DHT22;8368;48.772;8.754;2024-03-06T05:53:43;4.60;99.90
16511;DHT22;8368;48.772;8.754;2024-03-06T05:56:09;4.60;99.90
16511;DHT22;8368;48.772;8.754;2024-03-06T05:58:35;4.50;99.90
16511;DHT22;8368;48.772;8.754;2024-03-06T06:01:01;4.50;99.90
16511;DHT22;8368;48.772;8.754;2024-03-06T06:03:27;4.50;99.90
16511;DHT22;8368;48.772;8.754;2024-03-06T06:05:56;4.50;99.90
16511;DHT22;8368;48.772;8.754;2024-03-06T06:08:22;4.50;99.90
16511;DHT22;8368;48.772;8.754;2024-03-06T06:10:47;4.50;99.90
16511;DHT22;8368;48.772;8.754;2024-03-06T06:13:13;4.50;99.90
16511;DHT22;8368;48.772;8.754;2024-03-06T06:15:40;4.50;99.90
16511;DHT22;8368;48.772;8.754;2024-03-06T06:18:05;4.50;99.90
16511;DHT22;8368;48.772;8.754;2024-03-06T06:20:31;4.50;99.90
16511;DHT22;8368;48.772;8.754;2024-03-06T06:22:57;4.50;99.90
16511;DHT22;8368;48.772;8.754;2024-03-06T06:25:23;4.60;99.90
16511;DHT22;8368;48.772;8.754;2024-03-06T06:27:48;4.50;99.90
16511;DHT22;8368;48.772;8.754;2024-03-06T06:30:15;4.50;99.90
16511;DHT22;8368;48.772;8.754;2024-03-06T06:32:41;4.60;99.90
16511;DHT22;8368;48.772;8.754;2024-03-06T06:35:07;4.60;99.90
16511;DHT22;8368;48.772;8.754;2024-03-06T06:37:34;4.60;99.90
16511;DHT22;8368;48.772;8.754;2024-03-06T06:40:00;4.60;99.90
16511;DHT22;8368;48.772;8.754;2024-03-06T06:42:28;4.60;99.90
16511;DHT22;8368;48.772;8.754;2024-03-06T06:44:54;4.60;99.90
16511;DHT22;8368;48.772;8.754;2024-03-06T06:47:20;4.60;99.90
16511;DHT22;8368;48.772;8.754;2024-03-06T06:49:45;4.60;99.90
16511;DHT22;8368;48.772;8.754;2024-03-06T06:52:11;4.60;99.90
16511;DHT22;8368;48.772;8.754;2024-03-06T06:54:36;4.60;99.90
16511;DHT22;8368;48.772;8.754;2024-03-06T06:57:02;4.60;99.90
16511;DHT22;8368;48.772;8.754;2024-03-06T06:59:28;4.70;99.90
16511;DHT22;8368;48.772;8.754;2024-03-06T07:01:54;4.70;99.90
16511;DHT22;8368;48.772;8.754;2024-03-06T07:04:19;4.70;99.90
16511;DHT22;8368;48.772;8.754;2024-03-06T07:06:46;4.60;99.90
16511;DHT22;8368;48.772;8.754;2024-03-06T07:09:12;4.70;99.90
16511;DHT22;8368;48.772;8.754;2024-03-06T07:11:37;4.60;99.90
16511;DHT22;8368;48.772;8.754;2024-03-06T07:14:03;4.60;99.90
16511;DHT22;8368;48.772;8.754;2024-03-06T07:16:28;4.60;99.90
16511;DHT22;8368;48.772;8.754;2024-03-06T07:18:54;4.70;99.90
16511;DHT22;8368;48.772;8.754;2024-03-06T07:21:19;4.70;99.90
16511;DHT22;8368;48.772;8.754;2024-03-06T07:23:45;4.70;99.90
16511;DHT22;8368;48.772;8.754;2024-03-06T07:26:10;4.70;99.90
16511;DHT22;8368;48.772;8.754;2024-03-06T07:28:36;4.70;99.90
16511;DHT22;8368;48.772;8.754;2024-03-06T07:31:03;4.70;99.90
16511;DHT22;8368;48.772;8.754;2024-03-06T07:33:28;4.70;99.90
16511;DHT22;8368;48.772;8.754;2024-03-06T07:35:56;4.70;99.90
16511;DHT22;8368;48.772;8.754;2024-03-06T07:38:22;4.70;99.90
16511;DHT22;8368;48.772;8.754;2024-03-06T07:40:49;4.80;99.90
16511;DHT22;8368;48.772;8.754;2024-03-06T07:43:14;4.70;99.90
16511;DHT22;8368;48.772;8.754;2024-03-06T07:45:40;4.70;99.90
16511;DHT22;8368;48.772;8.754;2024-03-06T07:48:06;4.80;99.90
16511;DHT22;8368;48.772;8.754;2024-03-06T07:50:32;4.80;99.90
16511;DHT22;8368;48.772;8.754;2024-03-06T07:52:57;4.80;99.90
16511;DHT22;8368;48.772;8.754;2024-03-06T07:55:23;4.80;99.90
16511;DHT22;8368;48.772;8.754;2024-03-06T07:57:48;4.80;99.90
16511;DHT22;8368;48.772;8.754;2024-03-06T08:00:14;4.90;99.90
16511;DHT22;8368;48.772;8.754;2024-03-06T08:02:41;4.90;99.90
16511;DHT22;8368;48.772;8.754;2024-03-06T08:05:10;4.90;99.90
16511;DHT22;8368;48.772;8.754;2024-03-06T08:07:38;5.00;99.90
16511;DHT22;8368;48.772;8.754;2024-03-06T08:10:08;5.00;99.90
16511;DHT22;8368;48.772;8.754;2024-03-06T08:12:34;5.00;99.90
16511;DHT22;8368;48.772;8.754;2024-03-06T08:15:00;5.00;99.90
16511;DHT22;8368;48.772;8.754;2024-03-06T08:17:27;5.00;99.90
16511;DHT22;8368;48.772;8.754;2024-03-06T08:19:52;5.00;99.90
16511;DHT22;8368;48.772;8.754;2024-03-06T08:22:18;5.00;99.90
16511;DHT22;8368;48.772;8.754;2024-03-06T08:24:43;5.10;99.90
16511;DHT22;8368;48.772;8.754;2024-03-06T08:27:09;5.10;99.90
16511;DHT22;8368;48.772;8.754;2024-03-06T08:29:34;5.10;99.90
16511;DHT22;8368;48.772;8.754;2024-03-06T08:32:00;5.10;99.90
16511;DHT22;8368;48.772;8.754;2024-03-06T08:34:27;5.10;99.90
16511;DHT22;8368;48.772;8.754;2024-03-06T08:36:52;5.10;99.90
16511;DHT22;8368;48.772;8.754;2024-03-06T08:39:20;5.20;99.90
16511;DHT22;8368;48.772;8.754;2024-03-06T08:41:46;5.20;99.90
16511;DHT22;8368;48.772;8.754;2024-03-06T08:44:11;5.20;99.90
16511;DHT22;8368;48.772;8.754;2024-03-06T08:46:37;5.30;99.90
16511;DHT22;8368;48.772;8.754;2024-03-06T08:49:02;5.30;99.90
16511;DHT22;8368;48.772;8.754;2024-03-06T08:51:28;5.50;99.90
16511;DHT22;8368;48.772;8.754;2024-03-06T08:53:53;5.50;99.90
16511;DHT22;8368;48.772;8.754;2024-03-06T08:56:19;5.60;99.90
16511;DHT22;8368;48.772;8.754;2024-03-06T08:58:44;5.60;99.90
16511;DHT22;8368;48.772;8.754;2024-03-06T09:01:10;5.60;99.90
16511;DHT22;8368;48.772;8.754;2024-03-06T09:03:35;5.60;99.90
16511;DHT22;8368;48.772;8.754;2024-03-06T09:06:01;5.60;99.90
16511;DHT22;8368;48.772;8.754;2024-03-06T09:08:28;5.70;99.90
16511;DHT22;8368;48.772;8.754;2024-03-06T09:10:53;5.70;99.90
16511;DHT22;8368;48.772;8.754;2024-03-06T09:13:19;5.70;99.90
16511;DHT22;8368;48.772;8.754;2024-03-06T09:15:45;5.80;99.90
16511;DHT22;8368;48.772;8.754;2024-03-06T09:18:10;5.70;99.90
16511;DHT22;8368;48.772;8.754;2024-03-06T09:20:36;5.70;99.90
16511;DHT22;8368;48.772;8.754;2024-03-06T09:23:01;5.80;99.90
16511;DHT22;8368;48.772;8.754;2024-03-06T09:25:28;5.80;99.90
16511;DHT22;8368;48.772;8.754;2024-03-06T09:27:54;5.70;99.90
16511;DHT22;8368;48.772;8.754;2024-03-06T09:30:19;5.70;99.90
16511;DHT22;8368;48.772;8.754;2024-03-06T09:32:45;5.80;99.90
16511;DHT22;8368;48.772;8.754;2024-03-06T09:35:10;5.80;99.90
16511;DHT22;8368;48.772;8.754;2024-03-06T09:37:36;5.80;99.90
16511;DHT22;8368;48.772;8.754;2024-03-06T09:40:02;5.70;99.90
16511;DHT22;8368;48.772;8.754;2024-03-06T09:42:28;5.70;99.90
16511;DHT22;8368;48.772;8.754;2024-03-06T09:44:54;5.70;99.90
16511;DHT22;8368;48.772;8.754;2024-03-06T09:47:22;5.60;99.90
16511;DHT22;8368;48.772;8.754;2024-03-06T09:49:52;5.50;99.90
16511;DHT22;8368;48.772;8.754;2024-03-06T09:52:19;5.40;99.90
16511;DHT22;8368;48.772;8.754;2024-03-06T09:54:44;5.50;99.90
16511;DHT22;8368;48.772;8.754;2024-03-06T09:57:10;5.50;99.90
16511;DHT22;8368;48.772;8.754;2024-03-06T09:59:38;5.60;99.90
16511;DHT22;8368;48.772;8.754;2024-03-06T10:02:19;5.60;99.90
16511;DHT22;8368;48.772;8.754;2024-03-06T10:04:49;5.60;99.90
16511;DHT22;8368;48.772;8.754;2024-03-06T10:07:14;5.60;99.90
16511;DHT22;8368;48.772;8.754;2024-03-06T10:09:40;5.60;99.90
16511;DHT22;8368;48.772;8.754;2024-03-06T10:12:06;5.60;99.90
16511;DHT22;8368;48.772;8.754;2024-03-06T10:14:32;5.70;99.90
16511;DHT22;8368;48.772;8.754;2024-03-06T10:16:59;5.70;99.90
16511;DHT22;8368;48.772;8.754;2024-03-06T10:19:26;5.70;99.90
16511;DHT22;8368;48.772;8.754;2024-03-06T10:21:53;5.60;99.90
16511;DHT22;8368;48.772;8.754;2024-03-06T10:24:23;5.60;99.90
16511;DHT22;8368;48.772;8.754;2024-03-06T10:26:50;5.60;99.90
16511;DHT22;8368;48.772;8.754;2024-03-06T10:29:17;5.60;99.90
16511;DHT22;8368;48.772;8.754;2024-03-06T10:31:54;5.60;99.90
16511;DHT22;8368;48.772;8.754;2024-03-06T10:34:20;5.60;99.90
16511;DHT22;8368;48.772;8.754;2024-03-06T10:36:49;5.50;99.90
16511;DHT22;8368;48.772;8.754;2024-03-06T10:39:20;5.50;99.90
16511;DHT22;8368;48.772;8.754;2024-03-06T10:41:46;5.50;99.90
16511;DHT22;8368;48.772;8.754;2024-03-06T10:44:20;5.50;99.90
16511;DHT22;8368;48.772;8.754;2024-03-06T10:46:46;5.60;99.90
16511;DHT22;8368;48.772;8.754;2024-03-06T10:49:13;5.60;99.90
16511;DHT22;8368;48.772;8.754;2024-03-06T10:51:44;5.70;99.90
16511;DHT22;8368;48.772;8.754;2024-03-06T10:54:11;5.80;99.90
16511;DHT22;8368;48.772;8.754;2024-03-06T10:56:40;5.80;99.90
16511;DHT22;8368;48.772;8.754;2024-03-06T10:59:10;5.80;99.90
16511;DHT22;8368;48.772;8.754;2024-03-06T11:01:37;5.80;99.90
16511;DHT22;8368;48.772;8.754;2024-03-06T11:04:05;5.90;99.90
16511;DHT22;8368;48.772;8.754;2024-03-06T11:06:31;5.90;99.90
16511;DHT22;8368;48.772;8.754;2024-03-06T11:08:56;5.90;99.90
16511;DHT22;8368;48.772;8.754;2024-03-06T11:11:23;5.90;99.90
16511;DHT22;8368;48.772;8.754;2024-03-06T11:13:49;5.90;99.90
16511;DHT22;8368;48.772;8.754;2024-03-06T11:16:15;5.80;99.90
16511;DHT22;8368;48.772;8.754;2024-03-06T11:18:42;5.80;99.90
16511;DHT22;8368;48.772;8.754;2024-03-06T11:24:15;5.70;99.90
16511;DHT22;8368;48.772;8.754;2024-03-06T11:26:43;5.70;99.90
16511;DHT22;8368;48.772;8.754;2024-03-06T11:29:08;5.70;99.90
16511;DHT22;8368;48.772;8.754;2024-03-06T11:31:35;5.70;99.90
16511;DHT22;8368;48.772;8.754;2024-03-06T11:34:04;5.70;99.90
16511;DHT22;8368;48.772;8.754;2024-03-06T11:36:30;5.80;99.90
16511;DHT22;8368;48.772;8.754;2024-03-06T11:39:06;5.70;99.90
16511;DHT22;8368;48.772;8.754;2024-03-06T11:41:52;5.70;99.90
16511;DHT22;8368;48.772;8.754;2024-03-06T11:44:22;5.70;99.90
16511;DHT22;8368;48.772;8.754;2024-03-06T11:49:29;5.70;99.90
16511;DHT22;8368;48.772;8.754;2024-03-06T11:52:01;5.80;99.90
16511;DHT22;8368;48.772;8.754;2024-03-06T11:54:26;5.80;99.90
16511;DHT22;8368;48.772;8.754;2024-03-06T11:56:54;5.80;99.90
16511;DHT22;8368;48.772;8.754;2024-03-06T11:59:23;5.80;99.90
16511;DHT22;8368;48.772;8.754;2024-03-06T12:01:50;5.80;99.90
16511;DHT22;8368;48.772;8.754;2024-03-06T12:04:16;5.80;99.90
16511;DHT22;8368;48.772;8.754;2024-03-06T12:06:43;5.80;99.90
16511;DHT22;8368;48.772;8.754;2024-03-06T12:09:08;5.80;99.90
16511;DHT22;8368;48.772;8.754;2024-03-06T12:11:37;5.90;99.90
16511;DHT22;8368;48.772;8.754;2024-03-06T12:14:03;5.90;99.90
16511;DHT22;8368;48.772;8.754;2024-03-06T12:16:28;6.00;99.90
16511;DHT22;8368;48.772;8.754;2024-03-06T12:18:58;6.00;99.90
16511;DHT22;8368;48.772;8.754;2024-03-06T12:21:34;6.00;99.90
16511;DHT22;8368;48.772;8.754;2024-03-06T12:24:06;6.10;99.90
16511;DHT22;8368;48.772;8.754;2024-03-06T12:26:32;6.00;99.90
16511;DHT22;8368;48.772;8.754;2024-03-06T12:29:08;5.90;99.90
16511;DHT22;8368;48.772;8.754;2024-03-06T12:31:35;6.00;99.90
16511;DHT22;8368;48.772;8.754;2024-03-06T12:34:02;6.00;99.90
16511;DHT22;8368;48.772;8.754;2024-03-06T12:36:28;6.00;99.90
16511;DHT22;8368;48.772;8.754;2024-03-06T12:38:59;6.00;99.90
16511;DHT22;8368;48.772;8.754;2024-03-06T12:41:25;5.90;99.90
16511;DHT22;8368;48.772;8.754;2024-03-06T12:43:52;5.90;99.90
16511;DHT22;8368;48.772;8.754;2024-03-06T12:46:18;5.90;99.90
16511;DHT22;8368;48.772;8.754;2024-03-06T12:48:44;5.90;99.90
16511;DHT22;8368;48.772;8.754;2024-03-06T12:51:11;6.00;99.90
16511;DHT22;8368;48.772;8.754;2024-03-06T12:53:36;5.90;99.90
16511;DHT22;8368;48.772;8.754;2024-03-06T12:56:02;5.80;99.90
16511;DHT22;8368;48.772;8.754;2024-03-06T12:58:28;5.70;99.90
16511;DHT22;8368;48.772;8.754;2024-03-06T13:00:53;5.70;99.90
16511;DHT22;8368;48.772;8.754;2024-03-06T13:03:20;5.60;99.90
16511;DHT22;8368;48.772;8.754;2024-03-06T13:05:45;5.70;99.90
16511;DHT22;8368;48.772;8.754;2024-03-06T13:08:14;5.70;99.90
16511;DHT22;8368;48.772;8.754;2024-03-06T13:10:40;5.70;99.90
16511;DHT22;8368;48.772;8.754;2024-03-06T13:13:06;5.70;99.90
16511;DHT22;8368;48.772;8.754;2024-03-06T13:15:35;5.80;99.90
16511;DHT22;8368;48.772;8.754;2024-03-06T13:18:02;5.80;99.90
16511;DHT22;8368;48.772;8.754;2024-03-06T13:20:31;6.00;99.90
16511;DHT22;8368;48.772;8.754;2024-03-06T13:22:57;6.20;99.90
16511;DHT22;8368;48.772;8.754;2024-03-06T13:25:22;6.30;99.90
16511;DHT22;8368;48.772;8.754;2024-03-06T13:27:49;6.20;99.90
16511;DHT22;8368;48.772;8.754;2024-03-06T13:30:14;6.30;99.90
16511;DHT22;8368;48.772;8.754;2024-03-06T13:32:40;6.20;99.90
16511;DHT22;8368;48.772;8.754;2024-03-06T13:35:08;6.10;99.90
16511;DHT22;8368;48.772;8.754;2024-03-06T13:37:38;6.10;99.90
16511;DHT22;8368;48.772;8.754;2024-03-06T13:40:04;6.10;99.90
16511;DHT22;8368;48.772;8.754;2024-03-06T13:42:32;6.00;99.90
16511;DHT22;8368;48.772;8.754;2024-03-06T13:44:58;5.90;99.90
16511;DHT22;8368;48.772;8.754;2024-03-06T13:47:23;6.00;99.90
16511;DHT22;8368;48.772;8.754;2024-03-06T13:49:49;6.00;99.90
16511;DHT22;8368;48.772;8.754;2024-03-06T13:52:14;6.00;99.90
16511;DHT22;8368;48.772;8.754;2024-03-06T13:54:42;6.00;99.90
16511;DHT22;8368;48.772;8.754;2024-03-06T13:57:08;6.00;99.90
16511;DHT22;8368;48.772;8.754;2024-03-06T13:59:34;5.90;99.90
16511;DHT22;8368;48.772;8.754;2024-03-06T14:02:01;5.90;99.90
16511;DHT22;8368;48.772;8.754;2024-03-06T14:04:28;5.80;99.90
16511;DHT22;8368;48.772;8.754;2024-03-06T14:06:53;5.90;99.90
16511;DHT22;8368;48.772;8.754;2024-03-06T14:09:19;5.80;99.90
16511;DHT22;8368;48.772;8.754;2024-03-06T14:11:45;5.70;99.90
16511;DHT22;8368;48.772;8.754;2024-03-06T14:14:10;5.70;99.90
16511;DHT22;8368;48.772;8.754;2024-03-06T14:16:39;5.70;99.90
16511;DHT22;8368;48.772;8.754;2024-03-06T14:19:05;5.80;99.90
16511;DHT22;8368;48.772;8.754;2024-03-06T14:21:31;5.70;99.90
16511;DHT22;8368;48.772;8.754;2024-03-06T14:24:01;5.70;99.90
16511;DHT22;8368;48.772;8.754;2024-03-06T14:26:31;5.70;99.90
16511;DHT22;8368;48.772;8.754;2024-03-06T14:28:58;5.70;99.90
16511;DHT22;8368;48.772;8.754;2024-03-06T14:31:24;5.70;99.90
16511;DHT22;8368;48.772;8.754;2024-03-06T14:40:33;5.70;99.90
16511;DHT22;8368;48.772;8.754;2024-03-06T14:42:59;5.60;99.90
16511;DHT22;8368;48.772;8.754;2024-03-06T14:45:25;5.60;99.90
16511;DHT22;8368;48.772;8.754;2024-03-06T14:47:50;5.60;99.90
16511;DHT22;8368;48.772;8.754;2024-03-06T14:50:16;5.60;99.90
16511;DHT22;8368;48.772;8.754;2024-03-06T14:52:41;5.50;99.90
16511;DHT22;8368;48.772;8.754;2024-03-06T14:55:07;5.50;99.90
16511;DHT22;8368;48.772;8.754;2024-03-06T14:57:34;5.50;99.90
16511;DHT22;8368;48.772;8.754;2024-03-06T15:00:00;5.50;99.90
16511;DHT22;8368;48.772;8.754;2024-03-06T15:02:25;5.50;99.90
16511;DHT22;8368;48.772;8.754;2024-03-06T15:04:51;5.60;99.90
16511;DHT22;8368;48.772;8.754;2024-03-06T15:07:16;5.60;99.90
16511;DHT22;8368;48.772;8.754;2024-03-06T15:09:42;5.50;99.90
16511;DHT22;8368;48.772;8.754;2024-03-06T15:12:08;5.50;99.90
16511;DHT22;8368;48.772;8.754;2024-03-06T15:14:34;5.50;99.90
16511;DHT22;8368;48.772;8.754;2024-03-06T15:16:59;5.60;99.90
16511;DHT22;8368;48.772;8.754;2024-03-06T15:19:25;5.60;99.90
16511;DHT22;8368;48.772;8.754;2024-03-06T15:21:51;5.60;99.90
16511;DHT22;8368;48.772;8.754;2024-03-06T15:24:16;5.60;99.90
16511;DHT22;8368;48.772;8.754;2024-03-06T15:26:42;5.60;99.90
16511;DHT22;8368;48.772;8.754;2024-03-06T15:29:08;5.50;99.90
16511;DHT22;8368;48.772;8.754;2024-03-06T15:31:35;5.50;99.90
16511;DHT22;8368;48.772;8.754;2024-03-06T15:34:00;5.50;99.90
16511;DHT22;8368;48.772;8.754;2024-03-06T15:36:26;5.50;99.90
16511;DHT22;8368;48.772;8.754;2024-03-06T15:38:51;5.50;99.90
16511;DHT22;8368;48.772;8.754;2024-03-06T15:41:20;5.50;99.90
16511;DHT22;8368;48.772;8.754;2024-03-06T15:43:46;5.50;99.90
16511;DHT22;8368;48.772;8.754;2024-03-06T15:46:12;5.50;99.90
16511;DHT22;8368;48.772;8.754;2024-03-06T15:48:37;5.50;99.90
16511;DHT22;8368;48.772;8.754;2024-03-06T15:51:03;5.50;99.90
16511;DHT22;8368;48.772;8.754;2024-03-06T15:53:29;5.50;99.90
16511;DHT22;8368;48.772;8.754;2024-03-06T15:55:55;5.50;99.90
16511;DHT22;8368;48.772;8.754;2024-03-06T15:58:24;5.50;99.90
16511;DHT22;8368;48.772;8.754;2024-03-06T16:00:50;5.50;99.90
16511;DHT22;8368;48.772;8.754;2024-03-06T16:03:16;5.50;99.90
16511;DHT22;8368;48.772;8.754;2024-03-06T16:05:41;5.50;99.90
16511;DHT22;8368;48.772;8.754;2024-03-06T16:08:07;5.50;99.90
16511;DHT22;8368;48.772;8.754;2024-03-06T16:10:34;5.50;99.90